Stetsonville, WI

7:11 PM CST on February 09, 2016 (GMT -0600)
Taylor County | | Change Station
CLOSE
Current Station
Airport
Location: Medford,
Elevation: 1470 ft
Nearby Weather Stations

Elev 1470 ft 45.10 °N, 90.30 °W | Updated 16 minutes ago

Overcast
Overcast
8 °F
Feels Like -8 °F
N
13
Wind Variable Wind from NNW
Gusts 23 mph

Today
High -- | Low -- °F
--% Chance of Precip.
Yesterday
High -- | Low -- °F
Precip. -- in
Pressure 29.96 in
Visibility 10.0 miles
Clouds Overcast 2600 ft
Windchill -8 °F
Dew Point 0 °F
Humidity 70%
Rainfall 0.00 in
Snow Depth Not available.
7:11 AM 5:19 PM
Waxing Crescent, 3% visible
METAR KMDZ 100055Z AUTO 34011G20KT 10SM OVC026 M13/M18 A2996 RMK AO2 T11331177
Pressure 29.96 in
Visibility 10.0 miles
Clouds Overcast 2600 ft
Windchill -8 °F
Dew Point 0 °F
Humidity 70%
Rainfall 0.00 in
Snow Depth Not available.
7:11 AM 5:19 PM
Waxing Crescent, 3% visible
METAR KMDZ 100055Z AUTO 34011G20KT 10SM OVC026 M13/M18 A2996 RMK AO2 T11331177

10-Day Weather Forecast

Almanac

Astronomy

Feb. 09, 2016 Rise Set
Actual Time
Civil Twilight
Nautical Twilight
Astronomical Twilight
Moon
Length of Visible Light
Length of Day
Tomorrow will be .
, % of the Moon is Illuminated

Today's Extremes

State Highs State Lows

Community

WunderPhotos

Upload Photos

1,891,752 photos uploaded!

WunderBlog® & News

Nearby

Air Quality

  Air Quality AQ Index Pollutant
Not available.

Snow Depth

Station Depth Elevation

Earthquake Activity

City Distance Mag. Time & Date
Minimum magnitude displayed is 2.5.

Coastal Water Temperatures

Place Temperature

Stations

Nearby Weather Stations

Station Location Temp. Windchill Dew Point Humidity Wind Precip. Elev Updated Type
                   

Watches & Warnings

There are currently no watches in effect.